createdAt,value
2019-05-16T00:01:21.552Z,100233.17
2019-05-16T00:06:28.539Z,100215.91
2019-05-16T00:11:33.825Z,100214.23
2019-05-16T00:16:43.386Z,100207.89
2019-05-16T00:21:52.262Z,100197.47
2019-05-16T00:26:58.636Z,100199.97
2019-05-16T00:32:08.566Z,100189.53
2019-05-16T00:37:18.203Z,100182.39
2019-05-16T00:42:22.565Z,100185.16
2019-05-16T00:47:32.086Z,100181.58
2019-05-16T00:52:39.121Z,100180.76
2019-05-16T01:03:08.141Z,100172.52
2019-05-16T01:08:18.946Z,100152.20
2019-05-16T01:13:31.534Z,100144.84
2019-05-16T01:18:41.637Z,100135.76
2019-05-16T01:23:48.066Z,100131.12
2019-05-16T01:28:57.690Z,100123.14
2019-05-16T01:34:09.695Z,100116.28
2019-05-16T01:39:13.672Z,100116.56
2019-05-16T01:44:18.386Z,100112.44
2019-05-16T01:49:28.015Z,100106.66
2019-05-16T01:54:43.238Z,100106.66
2019-05-16T01:59:51.008Z,100104.20
2019-05-16T02:05:01.124Z,100101.16
2019-05-16T02:10:09.619Z,100093.50
2019-05-16T02:15:18.836Z,100097.58
2019-05-16T02:20:30.170Z,100087.69
2019-05-16T02:25:34.153Z,100091.25
2019-05-16T02:30:43.798Z,100080.23
2019-05-16T02:35:55.697Z,100074.77
2019-05-16T02:41:05.357Z,100074.22
2019-05-16T02:46:14.728Z,100069.28
2019-05-16T02:51:25.827Z,100059.91
2019-05-16T02:56:31.761Z,100053.05
2019-05-16T03:01:42.331Z,100054.12
2019-05-16T03:06:53.039Z,100057.96
2019-05-16T03:12:01.883Z,100053.84
2019-05-16T03:17:05.999Z,100052.20
2019-05-16T03:22:22.104Z,100056.59
2019-05-16T03:27:32.923Z,100065.95
2019-05-16T03:32:45.513Z,100065.38
2019-05-16T03:37:55.874Z,100077.20
2019-05-16T03:43:02.157Z,100070.06
2019-05-16T03:48:06.098Z,100072.59
2019-05-16T03:53:11.686Z,100059.16
2019-05-16T03:58:16.177Z,100046.49
2019-05-16T04:03:32.098Z,100051.41
2019-05-16T04:08:33.760Z,100049.48
2019-05-16T04:13:40.826Z,100056.44
2019-05-16T04:18:46.725Z,100052.77
2019-05-16T04:23:56.223Z,100047.56
2019-05-16T04:29:03.238Z,100048.11
2019-05-16T04:34:07.775Z,100050.34
2019-05-16T04:39:12.251Z,100050.34
2019-05-16T04:44:16.308Z,100054.71
2019-05-16T04:49:21.254Z,100052.51
2019-05-16T04:54:25.549Z,100059.64
2019-05-16T04:59:31.156Z,100054.45
2019-05-16T05:04:35.395Z,100060.22
2019-05-16T05:09:40.868Z,100056.36
2019-05-16T05:14:45.168Z,100055.56
2019-05-16T05:19:50.691Z,100053.38
2019-05-16T05:24:54.863Z,100048.73
2019-05-16T05:30:01.029Z,100050.90
2019-05-16T05:35:05.231Z,100044.29
2019-05-16T05:40:10.602Z,100047.25
2019-05-16T05:45:15.082Z,100043.69
2019-05-16T05:50:20.187Z,100031.28
2019-05-16T05:55:24.388Z,100040.21
2019-05-16T06:00:30.310Z,100030.62
2019-05-16T06:05:34.658Z,100034.53
2019-05-16T06:10:40.529Z,100021.86
2019-05-16T06:15:44.741Z,100012.63
2019-05-16T06:20:51.117Z,100006.10
2019-05-16T06:25:55.664Z,100010.95
2019-05-16T06:31:01.865Z,100007.34
2019-05-16T06:36:05.456Z,100009.43
2019-05-16T06:41:10.688Z,100010.89
2019-05-16T06:46:14.876Z,100012.40
2019-05-16T06:51:20.062Z,100002.92
2019-05-16T06:56:24.371Z,100002.92
2019-05-16T07:01:29.988Z,99999.38
2019-05-16T07:06:51.770Z,99993.42
2019-05-16T07:11:42.736Z,99989.84
2019-05-16T07:16:49.681Z,99989.84
2019-05-16T07:21:53.552Z,99985.22
2019-05-16T07:27:00.211Z,99990.23
2019-05-16T07:32:04.540Z,99991.45
2019-05-16T07:37:10.683Z,99991.45
2019-05-16T07:42:14.351Z,99978.05
2019-05-16T07:47:20.265Z,99987.18
2019-05-16T07:52:24.671Z,99987.18
2019-05-16T07:57:30.615Z,99993.20
2019-05-16T08:02:34.695Z,99985.91
2019-05-16T08:07:40.634Z,99978.58
2019-05-16T08:12:44.888Z,99976.67
2019-05-16T08:17:51.267Z,99984.53
2019-05-16T08:22:54.667Z,99977.52
2019-05-16T08:28:01.189Z,99970.50
2019-05-16T08:33:05.547Z,99973.13
2019-05-16T08:38:13.591Z,99978.83
2019-05-16T08:43:15.712Z,99978.58
2019-05-16T08:48:22.890Z,99975.25
2019-05-16T08:53:26.144Z,99983.49
2019-05-16T08:58:33.040Z,99977.84
2019-05-16T09:03:36.349Z,99966.44
2019-05-16T09:08:40.667Z,99968.53
2019-05-16T09:13:47.502Z,99967.25
2019-05-16T09:18:51.435Z,99955.64
2019-05-16T09:23:57.811Z,99951.98
2019-05-16T09:29:02.526Z,99939.37
2019-05-16T09:34:07.487Z,99947.47
2019-05-16T09:39:11.691Z,99944.48
2019-05-16T09:44:18.257Z,99947.77
2019-05-16T09:49:24.848Z,99944.15
2019-05-16T09:54:27.519Z,99940.70
2019-05-16T09:59:31.618Z,99944.83
2019-05-16T10:04:36.978Z,99953.36
2019-05-16T10:13:11.571Z,99951.12
2019-05-16T10:18:17.146Z,99941.14
2019-05-16T10:23:22.346Z,99941.59
2019-05-16T10:28:27.851Z,99941.51
2019-05-16T10:33:33.482Z,99928.12
2019-05-16T10:38:39.306Z,99925.53
2019-05-16T10:43:47.290Z,99925.12
2019-05-16T10:48:51.970Z,99915.10
2019-05-16T10:54:08.845Z,99923.14
2019-05-16T10:59:37.838Z,99929.47
2019-05-16T11:04:24.235Z,99915.06
2019-05-16T11:09:18.540Z,99927.44
2019-05-16T11:14:23.764Z,99932.80
2019-05-16T11:19:29.067Z,99940.30
2019-05-16T11:24:37.549Z,99947.31
2019-05-16T11:29:42.221Z,99943.39
2019-05-16T11:34:47.916Z,99936.77
2019-05-16T11:39:53.674Z,99940.42
2019-05-16T11:44:59.892Z,99933.37
2019-05-16T11:50:07.361Z,99925.76
2019-05-16T11:55:13.060Z,99919.58
2019-05-16T12:00:18.920Z,99899.53
2019-05-16T12:05:26.809Z,99898.61
2019-05-16T12:10:31.575Z,99894.41
2019-05-16T12:15:37.263Z,99887.13
2019-05-16T12:20:42.510Z,99885.08
2019-05-16T12:25:47.865Z,99892.42
2019-05-16T12:30:53.275Z,99880.97
2019-05-16T12:35:58.692Z,99888.25
2019-05-16T12:41:04.131Z,99882.63
2019-05-16T12:46:09.551Z,99875.16
2019-05-16T12:51:17.119Z,99870.14
2019-05-16T12:56:22.305Z,99862.26
2019-05-16T13:01:34.260Z,99856.00
2019-05-16T13:06:37.127Z,99854.95
2019-05-16T13:11:42.432Z,99848.41
2019-05-16T13:16:48.105Z,99843.02
2019-05-16T13:21:53.508Z,99838.09
2019-05-16T13:26:59.359Z,99845.02
2019-05-16T13:32:07.397Z,99841.67
2019-05-16T13:37:11.823Z,99841.59
2019-05-16T13:42:17.662Z,99842.52
2019-05-16T13:47:23.115Z,99831.89
2019-05-16T13:52:28.589Z,99831.62
2019-05-16T13:57:34.035Z,99827.15
2019-05-16T14:02:39.495Z,99826.30
2019-05-16T14:07:47.781Z,99816.06
2019-05-16T14:12:52.345Z,99819.76
2019-05-16T14:17:57.567Z,99813.17
2019-05-16T14:23:02.781Z,99812.35
2019-05-16T14:28:08.410Z,99799.08
2019-05-16T14:33:14.257Z,99803.49
2019-05-16T14:38:19.766Z,99791.98
2019-05-16T14:43:27.207Z,99794.12
2019-05-16T14:48:32.266Z,99793.75
2019-05-16T14:53:38.079Z,99785.44
2019-05-16T14:58:43.465Z,99784.52
2019-05-16T15:03:48.680Z,99790.80
2019-05-16T15:08:56.597Z,99783.03
2019-05-16T15:14:01.322Z,99779.10
2019-05-16T15:19:08.149Z,99779.31
2019-05-16T15:24:13.983Z,99775.17
2019-05-16T15:29:19.304Z,99767.69
2019-05-16T15:34:29.878Z,99772.92
2019-05-16T15:39:31.750Z,99769.19
2019-05-16T15:44:37.111Z,99782.66
2019-05-16T15:49:42.402Z,99771.89
2019-05-16T15:54:47.982Z,99765.88
2019-05-16T15:59:53.359Z,99763.52
2019-05-16T16:04:58.751Z,99765.38
2019-05-16T16:10:06.847Z,99763.56
2019-05-16T16:15:11.567Z,99765.26
2019-05-16T16:20:17.121Z,99758.15
2019-05-16T16:25:22.730Z,99763.50
2019-05-16T16:30:28.347Z,99760.74
2019-05-16T16:35:33.896Z,99756.83
2019-05-16T16:40:39.430Z,99752.86
2019-05-16T16:45:47.702Z,99745.98
2019-05-16T16:50:51.913Z,99745.31
2019-05-16T16:55:57.174Z,99746.83
2019-05-16T17:01:02.533Z,99746.11
2019-05-16T17:06:08.154Z,99737.99
2019-05-16T17:11:13.874Z,99748.15
2019-05-16T17:16:25.630Z,99743.83
2019-05-16T17:21:26.197Z,99740.27
2019-05-16T17:26:31.691Z,99737.00
2019-05-16T17:31:37.065Z,99741.84
2019-05-16T17:36:42.346Z,99743.18
2019-05-16T17:41:54.415Z,99737.23
2019-05-16T17:46:57.277Z,99742.16
2019-05-16T17:52:01.894Z,99743.19
2019-05-16T17:57:07.651Z,99740.72
2019-05-16T18:02:13.050Z,99737.89
2019-05-16T18:07:18.430Z,99733.86
2019-05-16T18:12:23.674Z,99726.98
2019-05-16T18:17:28.995Z,99720.76
2019-05-16T18:22:36.203Z,99715.52
2019-05-16T18:27:41.503Z,99711.97
2019-05-16T18:32:46.914Z,99714.30
2019-05-16T18:37:52.153Z,99715.75
2019-05-16T18:42:57.834Z,99704.27
2019-05-16T18:48:03.147Z,99701.98
2019-05-16T18:53:08.514Z,99705.30
2019-05-16T18:58:13.990Z,99707.91
2019-05-16T19:03:19.710Z,99712.11
2019-05-16T19:08:27.108Z,99703.91
2019-05-16T19:13:32.058Z,99706.48
2019-05-16T19:18:37.358Z,99701.05
2019-05-16T19:23:42.661Z,99700.80
2019-05-16T19:28:48.011Z,99702.92
2019-05-16T19:33:53.342Z,99702.28
2019-05-16T19:38:58.581Z,99703.70
2019-05-16T19:44:06.697Z,99699.28
2019-05-16T19:49:12.393Z,99700.53
2019-05-16T19:54:17.641Z,99698.85
2019-05-16T19:59:22.994Z,99699.81
2019-05-16T20:04:28.356Z,99697.91
2019-05-16T20:09:33.656Z,99699.03
2019-05-16T20:14:39.055Z,99706.74
2019-05-16T20:19:44.493Z,99701.91
2019-05-16T20:24:49.875Z,99706.45
2019-05-16T20:29:56.437Z,99707.41
2019-05-16T20:35:02.463Z,99708.82
2019-05-16T20:40:12.080Z,99703.79
2019-05-16T20:45:16.923Z,99700.00
2019-05-16T20:50:22.559Z,99705.80
2019-05-16T20:55:27.911Z,99700.06
2019-05-16T21:00:33.242Z,99698.69
2019-05-16T21:05:38.662Z,99701.23
2019-05-16T21:10:46.283Z,99695.53
2019-05-16T21:15:51.110Z,99697.56
2019-05-16T21:20:57.436Z,99699.27
2019-05-16T21:26:02.908Z,99698.83
2019-05-16T21:31:08.102Z,99702.81
2019-05-16T21:36:13.415Z,99703.86
2019-05-16T21:41:18.830Z,99704.11
2019-05-16T21:46:27.195Z,99707.39
2019-05-16T21:51:32.161Z,99695.38
2019-05-16T21:56:37.613Z,99686.67
2019-05-16T22:01:43.334Z,99677.91
2019-05-16T22:06:48.682Z,99674.48
2019-05-16T22:11:53.910Z,99669.55
2019-05-16T22:16:59.431Z,99664.55
2019-05-16T22:22:07.293Z,99660.67
2019-05-16T22:27:12.074Z,99652.08
2019-05-16T22:32:17.502Z,99649.00
2019-05-16T22:37:22.761Z,99646.89
2019-05-16T22:42:28.151Z,99646.98
2019-05-16T22:47:37.173Z,99642.63
2019-05-16T22:52:41.324Z,99643.50
2019-05-16T22:57:47.373Z,99630.81
2019-05-16T23:02:52.910Z,99635.95
2019-05-16T23:08:05.682Z,99636.73
2019-05-16T23:13:06.765Z,99625.89
2019-05-16T23:18:12.522Z,99624.47
2019-05-16T23:23:17.835Z,99622.30
2019-05-16T23:28:23.114Z,99615.19
2019-05-16T23:33:28.511Z,99612.25
2019-05-16T23:38:34.072Z,99608.38
2019-05-16T23:43:39.350Z,99611.72
2019-05-16T23:48:47.194Z,99612.03
2019-05-16T23:53:52.633Z,99614.62
2019-05-16T23:58:57.879Z,99609.81
